sensor_id;sensor_type;location;lat;lon;timestamp;temperature;humidity
9223;DHT22;7557;51.698;3.942;2022-12-18T00:01:15;1.40;99.90
9223;DHT22;7557;51.698;3.942;2022-12-18T00:03:43;1.50;99.90
9223;DHT22;7557;51.698;3.942;2022-12-18T00:06:11;1.60;99.90
9223;DHT22;7557;51.698;3.942;2022-12-18T00:08:39;1.50;99.90
9223;DHT22;7557;51.698;3.942;2022-12-18T00:11:08;1.40;99.90
9223;DHT22;7557;51.698;3.942;2022-12-18T00:13:36;1.30;99.90
9223;DHT22;7557;51.698;3.942;2022-12-18T00:16:06;1.10;99.90
9223;DHT22;7557;51.698;3.942;2022-12-18T00:18:35;1.00;99.90
9223;DHT22;7557;51.698;3.942;2022-12-18T00:21:05;1.00;99.90
9223;DHT22;7557;51.698;3.942;2022-12-18T00:23:34;0.90;99.90
9223;DHT22;7557;51.698;3.942;2022-12-18T00:26:03;1.00;99.90
9223;DHT22;7557;51.698;3.942;2022-12-18T00:28:31;1.00;99.90
9223;DHT22;7557;51.698;3.942;2022-12-18T00:31:02;1.00;99.90
9223;DHT22;7557;51.698;3.942;2022-12-18T00:33:31;0.80;99.90
9223;DHT22;7557;51.698;3.942;2022-12-18T00:36:01;0.80;99.90
9223;DHT22;7557;51.698;3.942;2022-12-18T00:38:29;0.90;99.90
9223;DHT22;7557;51.698;3.942;2022-12-18T00:40:56;0.90;99.90
9223;DHT22;7557;51.698;3.942;2022-12-18T00:43:24;0.90;99.90
9223;DHT22;7557;51.698;3.942;2022-12-18T00:45:50;0.90;99.90
9223;DHT22;7557;51.698;3.942;2022-12-18T00:48:18;1.00;99.90
9223;DHT22;7557;51.698;3.942;2022-12-18T00:50:49;1.00;99.90
9223;DHT22;7557;51.698;3.942;2022-12-18T00:53:17;1.10;99.90
9223;DHT22;7557;51.698;3.942;2022-12-18T00:55:45;1.10;99.90
9223;DHT22;7557;51.698;3.942;2022-12-18T00:58:14;1.10;99.90
9223;DHT22;7557;51.698;3.942;2022-12-18T01:00:43;1.00;99.90
9223;DHT22;7557;51.698;3.942;2022-12-18T01:03:12;0.90;99.90
9223;DHT22;7557;51.698;3.942;2022-12-18T01:05:41;0.90;99.90
9223;DHT22;7557;51.698;3.942;2022-12-18T01:08:10;0.90;99.90
9223;DHT22;7557;51.698;3.942;2022-12-18T01:10:40;1.00;99.90
9223;DHT22;7557;51.698;3.942;2022-12-18T01:13:10;1.20;99.90
9223;DHT22;7557;51.698;3.942;2022-12-18T01:15:37;1.30;99.90
9223;DHT22;7557;51.698;3.942;2022-12-18T01:18:06;1.40;99.90
9223;DHT22;7557;51.698;3.942;2022-12-18T01:20:37;1.40;99.90
9223;DHT22;7557;51.698;3.942;2022-12-18T01:23:05;1.50;99.90
9223;DHT22;7557;51.698;3.942;2022-12-18T01:25:35;1.50;99.90
9223;DHT22;7557;51.698;3.942;2022-12-18T01:28:03;1.60;99.90
9223;DHT22;7557;51.698;3.942;2022-12-18T01:30:31;1.70;99.90
9223;DHT22;7557;51.698;3.942;2022-12-18T01:32:58;1.80;99.90
9223;DHT22;7557;51.698;3.942;2022-12-18T01:35:26;1.90;99.90
9223;DHT22;7557;51.698;3.942;2022-12-18T01:37:54;1.90;99.90
9223;DHT22;7557;51.698;3.942;2022-12-18T01:40:22;1.90;99.90
9223;DHT22;7557;51.698;3.942;2022-12-18T01:42:52;1.90;99.90
9223;DHT22;7557;51.698;3.942;2022-12-18T01:45:26;1.80;99.90
9223;DHT22;7557;51.698;3.942;2022-12-18T01:47:56;1.90;99.90
9223;DHT22;7557;51.698;3.942;2022-12-18T01:50:27;1.80;99.90
9223;DHT22;7557;51.698;3.942;2022-12-18T01:52:59;1.90;99.90
9223;DHT22;7557;51.698;3.942;2022-12-18T01:55:29;1.90;99.90
9223;DHT22;7557;51.698;3.942;2022-12-18T01:57:59;1.90;99.90
9223;DHT22;7557;51.698;3.942;2022-12-18T02:00:28;1.90;99.90
9223;DHT22;7557;51.698;3.942;2022-12-18T02:02:55;1.90;99.90
9223;DHT22;7557;51.698;3.942;2022-12-18T02:05:30;2.00;99.90
9223;DHT22;7557;51.698;3.942;2022-12-18T02:08:07;2.20;99.90
9223;DHT22;7557;51.698;3.942;2022-12-18T02:10:43;2.30;99.90
9223;DHT22;7557;51.698;3.942;2022-12-18T02:13:19;2.30;99.90
9223;DHT22;7557;51.698;3.942;2022-12-18T02:15:54;2.30;99.90
9223;DHT22;7557;51.698;3.942;2022-12-18T02:18:27;2.30;99.90
9223;DHT22;7557;51.698;3.942;2022-12-18T02:20:59;2.30;99.90
9223;DHT22;7557;51.698;3.942;2022-12-18T02:23:44;2.30;99.90
9223;DHT22;7557;51.698;3.942;2022-12-18T02:26:21;2.20;99.90
9223;DHT22;7557;51.698;3.942;2022-12-18T02:28:53;2.20;99.90
9223;DHT22;7557;51.698;3.942;2022-12-18T02:31:25;2.00;99.90
9223;DHT22;7557;51.698;3.942;2022-12-18T02:33:57;2.00;99.90
9223;DHT22;7557;51.698;3.942;2022-12-18T02:36:27;2.10;99.90
9223;DHT22;7557;51.698;3.942;2022-12-18T02:38:56;2.10;99.90
9223;DHT22;7557;51.698;3.942;2022-12-18T02:41:28;2.10;99.90
9223;DHT22;7557;51.698;3.942;2022-12-18T02:43:58;2.00;99.90
9223;DHT22;7557;51.698;3.942;2022-12-18T02:46:29;2.00;99.90
9223;DHT22;7557;51.698;3.942;2022-12-18T02:49:04;2.10;99.90
9223;DHT22;7557;51.698;3.942;2022-12-18T02:51:40;2.20;99.90
9223;DHT22;7557;51.698;3.942;2022-12-18T02:54:21;2.30;99.90
9223;DHT22;7557;51.698;3.942;2022-12-18T02:56:54;2.20;99.90
9223;DHT22;7557;51.698;3.942;2022-12-18T02:59:29;2.20;99.90
9223;DHT22;7557;51.698;3.942;2022-12-18T03:02:02;2.10;99.90
9223;DHT22;7557;51.698;3.942;2022-12-18T03:04:39;2.00;99.90
9223;DHT22;7557;51.698;3.942;2022-12-18T03:07:11;1.80;99.90
9223;DHT22;7557;51.698;3.942;2022-12-18T03:09:44;1.80;99.90
9223;DHT22;7557;51.698;3.942;2022-12-18T03:12:19;1.90;99.90
9223;DHT22;7557;51.698;3.942;2022-12-18T03:14:52;1.80;99.90
9223;DHT22;7557;51.698;3.942;2022-12-18T03:17:23;1.90;99.90
9223;DHT22;7557;51.698;3.942;2022-12-18T03:19:53;1.90;99.90
9223;DHT22;7557;51.698;3.942;2022-12-18T03:22:24;2.00;99.90
9223;DHT22;7557;51.698;3.942;2022-12-18T03:24:54;2.10;99.90
9223;DHT22;7557;51.698;3.942;2022-12-18T03:27:25;2.20;99.90
9223;DHT22;7557;51.698;3.942;2022-12-18T03:29:59;2.20;99.90
9223;DHT22;7557;51.698;3.942;2022-12-18T03:32:39;2.20;99.90
9223;DHT22;7557;51.698;3.942;2022-12-18T03:35:08;2.20;99.90
9223;DHT22;7557;51.698;3.942;2022-12-18T03:37:38;2.10;99.90
9223;DHT22;7557;51.698;3.942;2022-12-18T03:40:06;2.00;99.90
9223;DHT22;7557;51.698;3.942;2022-12-18T03:42:43;2.00;99.90
9223;DHT22;7557;51.698;3.942;2022-12-18T03:45:18;2.00;99.90
9223;DHT22;7557;51.698;3.942;2022-12-18T03:48:01;2.00;99.90
9223;DHT22;7557;51.698;3.942;2022-12-18T03:50:37;2.00;99.90
9223;DHT22;7557;51.698;3.942;2022-12-18T03:53:16;2.00;99.90
9223;DHT22;7557;51.698;3.942;2022-12-18T03:55:46;2.00;99.90
9223;DHT22;7557;51.698;3.942;2022-12-18T03:58:19;2.00;99.90
9223;DHT22;7557;51.698;3.942;2022-12-18T04:00:49;2.10;99.90
9223;DHT22;7557;51.698;3.942;2022-12-18T04:03:18;2.10;99.90
9223;DHT22;7557;51.698;3.942;2022-12-18T04:05:48;2.10;99.90
9223;DHT22;7557;51.698;3.942;2022-12-18T04:08:17;2.10;99.90
9223;DHT22;7557;51.698;3.942;2022-12-18T04:10:45;2.00;99.90
9223;DHT22;7557;51.698;3.942;2022-12-18T04:13:13;2.10;99.90
9223;DHT22;7557;51.698;3.942;2022-12-18T04:15:49;2.10;99.90
9223;DHT22;7557;51.698;3.942;2022-12-18T04:18:17;2.10;99.90
9223;DHT22;7557;51.698;3.942;2022-12-18T04:20:45;2.10;99.90
9223;DHT22;7557;51.698;3.942;2022-12-18T04:23:12;2.20;99.90
9223;DHT22;7557;51.698;3.942;2022-12-18T04:25:40;2.10;99.90
9223;DHT22;7557;51.698;3.942;2022-12-18T04:28:07;2.10;99.90
9223;DHT22;7557;51.698;3.942;2022-12-18T04:30:35;2.00;99.90
9223;DHT22;7557;51.698;3.942;2022-12-18T04:33:03;2.00;99.90
9223;DHT22;7557;51.698;3.942;2022-12-18T04:35:31;1.90;99.90
9223;DHT22;7557;51.698;3.942;2022-12-18T04:37:59;1.80;99.90
9223;DHT22;7557;51.698;3.942;2022-12-18T04:40:26;1.80;99.90
9223;DHT22;7557;51.698;3.942;2022-12-18T04:42:53;1.90;99.90
9223;DHT22;7557;51.698;3.942;2022-12-18T04:45:21;1.90;99.90
9223;DHT22;7557;51.698;3.942;2022-12-18T04:47:48;1.80;99.90
9223;DHT22;7557;51.698;3.942;2022-12-18T04:50:17;1.80;99.90
9223;DHT22;7557;51.698;3.942;2022-12-18T04:52:45;1.80;99.90
9223;DHT22;7557;51.698;3.942;2022-12-18T04:55:12;1.70;99.90
9223;DHT22;7557;51.698;3.942;2022-12-18T04:57:40;1.80;99.90
9223;DHT22;7557;51.698;3.942;2022-12-18T05:00:09;1.80;99.90
9223;DHT22;7557;51.698;3.942;2022-12-18T05:02:36;1.80;99.90
9223;DHT22;7557;51.698;3.942;2022-12-18T05:05:05;1.80;99.90
9223;DHT22;7557;51.698;3.942;2022-12-18T05:07:34;1.80;99.90
9223;DHT22;7557;51.698;3.942;2022-12-18T05:10:01;1.80;99.90
9223;DHT22;7557;51.698;3.942;2022-12-18T05:12:28;1.80;99.90
9223;DHT22;7557;51.698;3.942;2022-12-18T05:14:57;1.70;99.90
9223;DHT22;7557;51.698;3.942;2022-12-18T05:17:25;1.70;99.90
9223;DHT22;7557;51.698;3.942;2022-12-18T05:19:52;1.60;99.90
9223;DHT22;7557;51.698;3.942;2022-12-18T05:22:20;1.60;99.90
9223;DHT22;7557;51.698;3.942;2022-12-18T05:24:48;1.70;99.90
9223;DHT22;7557;51.698;3.942;2022-12-18T05:27:16;1.70;99.90
9223;DHT22;7557;51.698;3.942;2022-12-18T05:29:45;1.60;99.90
9223;DHT22;7557;51.698;3.942;2022-12-18T05:32:12;1.70;99.90
9223;DHT22;7557;51.698;3.942;2022-12-18T05:34:39;1.70;99.90
9223;DHT22;7557;51.698;3.942;2022-12-18T05:37:06;1.70;99.90
9223;DHT22;7557;51.698;3.942;2022-12-18T05:39:34;1.70;99.90
9223;DHT22;7557;51.698;3.942;2022-12-18T05:42:03;1.70;99.90
9223;DHT22;7557;51.698;3.942;2022-12-18T05:44:30;1.80;99.90
9223;DHT22;7557;51.698;3.942;2022-12-18T05:46:57;1.80;99.90
9223;DHT22;7557;51.698;3.942;2022-12-18T05:49:25;1.80;99.90
9223;DHT22;7557;51.698;3.942;2022-12-18T05:51:52;1.80;99.90
9223;DHT22;7557;51.698;3.942;2022-12-18T05:54:20;1.80;99.90
9223;DHT22;7557;51.698;3.942;2022-12-18T05:56:47;1.70;99.90
9223;DHT22;7557;51.698;3.942;2022-12-18T05:59:16;1.70;99.90
9223;DHT22;7557;51.698;3.942;2022-12-18T06:01:44;1.70;99.90
9223;DHT22;7557;51.698;3.942;2022-12-18T06:04:11;1.80;99.90
9223;DHT22;7557;51.698;3.942;2022-12-18T06:06:39;1.70;99.90
9223;DHT22;7557;51.698;3.942;2022-12-18T06:09:06;1.70;99.90
9223;DHT22;7557;51.698;3.942;2022-12-18T06:11:36;1.70;99.90
9223;DHT22;7557;51.698;3.942;2022-12-18T06:14:05;1.70;99.90
9223;DHT22;7557;51.698;3.942;2022-12-18T06:16:34;1.70;99.90
9223;DHT22;7557;51.698;3.942;2022-12-18T06:19:03;1.60;99.90
9223;DHT22;7557;51.698;3.942;2022-12-18T06:21:32;1.70;99.90
9223;DHT22;7557;51.698;3.942;2022-12-18T06:24:00;1.70;99.90
9223;DHT22;7557;51.698;3.942;2022-12-18T06:26:27;1.80;99.90
9223;DHT22;7557;51.698;3.942;2022-12-18T06:28:55;1.70;99.90
9223;DHT22;7557;51.698;3.942;2022-12-18T06:31:22;1.70;99.90
9223;DHT22;7557;51.698;3.942;2022-12-18T06:33:51;1.70;99.90
9223;DHT22;7557;51.698;3.942;2022-12-18T06:36:19;1.70;99.90
9223;DHT22;7557;51.698;3.942;2022-12-18T06:38:47;1.70;99.90
9223;DHT22;7557;51.698;3.942;2022-12-18T06:41:16;1.70;99.90
9223;DHT22;7557;51.698;3.942;2022-12-18T06:43:44;1.60;99.90
9223;DHT22;7557;51.698;3.942;2022-12-18T06:46:12;1.50;99.90
9223;DHT22;7557;51.698;3.942;2022-12-18T06:48:39;1.50;99.90
9223;DHT22;7557;51.698;3.942;2022-12-18T06:51:08;1.50;99.90
9223;DHT22;7557;51.698;3.942;2022-12-18T06:53:36;1.40;99.90
9223;DHT22;7557;51.698;3.942;2022-12-18T06:56:05;1.30;99.90
9223;DHT22;7557;51.698;3.942;2022-12-18T06:58:33;1.20;99.90
9223;DHT22;7557;51.698;3.942;2022-12-18T07:01:01;1.10;99.90
9223;DHT22;7557;51.698;3.942;2022-12-18T07:03:29;1.10;99.90
9223;DHT22;7557;51.698;3.942;2022-12-18T07:05:56;0.90;99.90
9223;DHT22;7557;51.698;3.942;2022-12-18T07:08:25;0.80;99.90
9223;DHT22;7557;51.698;3.942;2022-12-18T07:10:53;0.80;99.90
9223;DHT22;7557;51.698;3.942;2022-12-18T07:13:21;0.80;99.90
9223;DHT22;7557;51.698;3.942;2022-12-18T07:15:48;0.70;99.90
9223;DHT22;7557;51.698;3.942;2022-12-18T07:18:16;0.70;99.90
9223;DHT22;7557;51.698;3.942;2022-12-18T07:20:43;0.60;99.90
9223;DHT22;7557;51.698;3.942;2022-12-18T07:23:11;0.60;99.90
9223;DHT22;7557;51.698;3.942;2022-12-18T07:25:40;0.60;99.90
9223;DHT22;7557;51.698;3.942;2022-12-18T07:28:08;0.60;99.90
9223;DHT22;7557;51.698;3.942;2022-12-18T07:30:37;0.60;99.90
9223;DHT22;7557;51.698;3.942;2022-12-18T07:33:04;0.50;99.90
9223;DHT22;7557;51.698;3.942;2022-12-18T07:35:32;0.50;99.90
9223;DHT22;7557;51.698;3.942;2022-12-18T07:38:01;0.50;99.90
9223;DHT22;7557;51.698;3.942;2022-12-18T07:40:28;0.50;99.90
9223;DHT22;7557;51.698;3.942;2022-12-18T07:42:57;0.50;99.90
9223;DHT22;7557;51.698;3.942;2022-12-18T07:45:25;0.50;99.90
9223;DHT22;7557;51.698;3.942;2022-12-18T07:47:52;0.50;99.90
9223;DHT22;7557;51.698;3.942;2022-12-18T07:50:19;0.40;99.90
9223;DHT22;7557;51.698;3.942;2022-12-18T07:52:47;0.40;99.90
9223;DHT22;7557;51.698;3.942;2022-12-18T07:55:14;0.40;99.90
9223;DHT22;7557;51.698;3.942;2022-12-18T07:57:42;0.50;99.90
9223;DHT22;7557;51.698;3.942;2022-12-18T08:00:12;0.50;99.90
9223;DHT22;7557;51.698;3.942;2022-12-18T08:02:40;0.60;99.90
9223;DHT22;7557;51.698;3.942;2022-12-18T08:05:08;0.60;99.90
9223;DHT22;7557;51.698;3.942;2022-12-18T08:07:35;0.50;99.90
9223;DHT22;7557;51.698;3.942;2022-12-18T08:10:03;0.50;99.90
9223;DHT22;7557;51.698;3.942;2022-12-18T08:12:31;0.40;99.90
9223;DHT22;7557;51.698;3.942;2022-12-18T08:14:58;0.40;99.90
9223;DHT22;7557;51.698;3.942;2022-12-18T08:17:27;0.30;99.90
9223;DHT22;7557;51.698;3.942;2022-12-18T08:19:55;0.30;99.90
9223;DHT22;7557;51.698;3.942;2022-12-18T08:22:22;0.30;99.90
9223;DHT22;7557;51.698;3.942;2022-12-18T08:24:50;0.20;99.90
9223;DHT22;7557;51.698;3.942;2022-12-18T08:27:17;0.20;99.90
9223;DHT22;7557;51.698;3.942;2022-12-18T08:29:45;0.30;99.90
9223;DHT22;7557;51.698;3.942;2022-12-18T08:32:12;0.40;99.90
9223;DHT22;7557;51.698;3.942;2022-12-18T08:34:41;0.50;99.90
9223;DHT22;7557;51.698;3.942;2022-12-18T08:37:09;0.50;99.90
9223;DHT22;7557;51.698;3.942;2022-12-18T08:39:36;0.50;99.90
9223;DHT22;7557;51.698;3.942;2022-12-18T08:42:04;0.60;99.90
9223;DHT22;7557;51.698;3.942;2022-12-18T08:44:48;0.70;99.90
9223;DHT22;7557;51.698;3.942;2022-12-18T08:47:16;0.80;99.90
9223;DHT22;7557;51.698;3.942;2022-12-18T08:49:45;0.90;99.90
9223;DHT22;7557;51.698;3.942;2022-12-18T08:52:12;1.10;99.90
9223;DHT22;7557;51.698;3.942;2022-12-18T08:54:40;1.10;99.90
9223;DHT22;7557;51.698;3.942;2022-12-18T08:57:07;1.20;99.90
9223;DHT22;7557;51.698;3.942;2022-12-18T08:59:35;1.30;99.90
9223;DHT22;7557;51.698;3.942;2022-12-18T09:02:02;1.30;99.90
9223;DHT22;7557;51.698;3.942;2022-12-18T09:04:30;1.30;99.90
9223;DHT22;7557;51.698;3.942;2022-12-18T09:06:59;1.30;99.90
9223;DHT22;7557;51.698;3.942;2022-12-18T09:09:26;1.30;99.90
9223;DHT22;7557;51.698;3.942;2022-12-18T09:11:54;1.20;99.90
9223;DHT22;7557;51.698;3.942;2022-12-18T09:14:21;1.20;99.90
9223;DHT22;7557;51.698;3.942;2022-12-18T09:16:49;1.10;99.90
9223;DHT22;7557;51.698;3.942;2022-12-18T09:19:16;1.10;99.90
9223;DHT22;7557;51.698;3.942;2022-12-18T09:21:44;1.20;99.90
9223;DHT22;7557;51.698;3.942;2022-12-18T09:24:13;1.20;99.90
9223;DHT22;7557;51.698;3.942;2022-12-18T09:26:41;1.30;99.90
9223;DHT22;7557;51.698;3.942;2022-12-18T09:29:08;1.40;99.90
9223;DHT22;7557;51.698;3.942;2022-12-18T09:31:36;1.40;99.90
9223;DHT22;7557;51.698;3.942;2022-12-18T09:34:06;1.40;99.90
9223;DHT22;7557;51.698;3.942;2022-12-18T09:36:34;1.40;99.90
9223;DHT22;7557;51.698;3.942;2022-12-18T09:39:02;1.40;99.90
9223;DHT22;7557;51.698;3.942;2022-12-18T09:41:46;1.50;99.90
9223;DHT22;7557;51.698;3.942;2022-12-18T09:44:24;1.50;99.90
9223;DHT22;7557;51.698;3.942;2022-12-18T09:47:07;1.50;99.90
9223;DHT22;7557;51.698;3.942;2022-12-18T09:49:40;1.50;99.90
9223;DHT22;7557;51.698;3.942;2022-12-18T09:52:14;1.50;99.90
9223;DHT22;7557;51.698;3.942;2022-12-18T09:54:45;1.40;99.90
9223;DHT22;7557;51.698;3.942;2022-12-18T09:57:19;1.40;99.90
9223;DHT22;7557;51.698;3.942;2022-12-18T09:59:51;1.40;99.90
9223;DHT22;7557;51.698;3.942;2022-12-18T10:02:21;1.50;99.90
9223;DHT22;7557;51.698;3.942;2022-12-18T10:05:05;1.60;99.90
9223;DHT22;7557;51.698;3.942;2022-12-18T10:07:43;1.60;99.90
9223;DHT22;7557;51.698;3.942;2022-12-18T10:10:23;1.60;99.90
9223;DHT22;7557;51.698;3.942;2022-12-18T10:13:00;1.60;99.90
9223;DHT22;7557;51.698;3.942;2022-12-18T10:15:35;1.60;99.90
9223;DHT22;7557;51.698;3.942;2022-12-18T10:18:13;1.70;99.90
9223;DHT22;7557;51.698;3.942;2022-12-18T10:20:46;1.70;99.90
9223;DHT22;7557;51.698;3.942;2022-12-18T10:23:21;1.60;99.90
9223;DHT22;7557;51.698;3.942;2022-12-18T10:25:55;1.70;99.90
9223;DHT22;7557;51.698;3.942;2022-12-18T10:28:29;1.70;99.90
9223;DHT22;7557;51.698;3.942;2022-12-18T10:30:58;1.80;99.90
9223;DHT22;7557;51.698;3.942;2022-12-18T10:33:29;1.80;99.90
9223;DHT22;7557;51.698;3.942;2022-12-18T10:35:57;1.80;99.90
9223;DHT22;7557;51.698;3.942;2022-12-18T10:38:27;1.90;99.90
9223;DHT22;7557;51.698;3.942;2022-12-18T10:40:56;1.90;99.90
9223;DHT22;7557;51.698;3.942;2022-12-18T10:43:27;1.90;99.90
9223;DHT22;7557;51.698;3.942;2022-12-18T10:46:14;1.90;99.90
9223;DHT22;7557;51.698;3.942;2022-12-18T10:48:53;2.00;99.90
9223;DHT22;7557;51.698;3.942;2022-12-18T10:51:24;2.00;99.90
9223;DHT22;7557;51.698;3.942;2022-12-18T10:53:56;2.00;99.90
9223;DHT22;7557;51.698;3.942;2022-12-18T10:56:26;2.00;99.90
9223;DHT22;7557;51.698;3.942;2022-12-18T10:59:00;2.00;99.90
9223;DHT22;7557;51.698;3.942;2022-12-18T11:01:47;2.00;99.90
9223;DHT22;7557;51.698;3.942;2022-12-18T11:04:18;2.00;99.90
9223;DHT22;7557;51.698;3.942;2022-12-18T11:06:54;2.00;99.90
9223;DHT22;7557;51.698;3.942;2022-12-18T11:09:23;2.00;99.90
9223;DHT22;7557;51.698;3.942;2022-12-18T11:11:52;1.90;99.90
9223;DHT22;7557;51.698;3.942;2022-12-18T11:14:24;1.90;99.90
9223;DHT22;7557;51.698;3.942;2022-12-18T11:16:52;1.90;99.90
9223;DHT22;7557;51.698;3.942;2022-12-18T11:19:28;2.00;99.90
9223;DHT22;7557;51.698;3.942;2022-12-18T11:21:57;2.00;99.90
9223;DHT22;7557;51.698;3.942;2022-12-18T11:24:29;2.10;99.90
9223;DHT22;7557;51.698;3.942;2022-12-18T11:26:59;2.10;99.90
9223;DHT22;7557;51.698;3.942;2022-12-18T11:29:33;2.10;99.90
9223;DHT22;7557;51.698;3.942;2022-12-18T11:32:27;2.00;99.90
9223;DHT22;7557;51.698;3.942;2022-12-18T11:35:00;1.90;99.90
9223;DHT22;7557;51.698;3.942;2022-12-18T11:37:30;1.90;99.90
9223;DHT22;7557;51.698;3.942;2022-12-18T11:40:01;1.90;99.90
9223;DHT22;7557;51.698;3.942;2022-12-18T11:42:35;2.00;99.90
9223;DHT22;7557;51.698;3.942;2022-12-18T11:45:25;1.90;99.90
9223;DHT22;7557;51.698;3.942;2022-12-18T11:47:58;1.90;99.90
9223;DHT22;7557;51.698;3.942;2022-12-18T11:50:30;1.90;99.90
9223;DHT22;7557;51.698;3.942;2022-12-18T11:52:59;1.90;99.90
9223;DHT22;7557;51.698;3.942;2022-12-18T11:55:33;1.90;99.90
9223;DHT22;7557;51.698;3.942;2022-12-18T11:58:10;1.90;99.90
9223;DHT22;7557;51.698;3.942;2022-12-18T12:00:47;1.90;99.90
9223;DHT22;7557;51.698;3.942;2022-12-18T12:03:27;1.80;99.90
9223;DHT22;7557;51.698;3.942;2022-12-18T12:06:07;1.80;99.90
9223;DHT22;7557;51.698;3.942;2022-12-18T12:08:51;1.80;99.90
9223;DHT22;7557;51.698;3.942;2022-12-18T12:11:26;1.80;99.90
9223;DHT22;7557;51.698;3.942;2022-12-18T12:14:12;1.70;99.90
9223;DHT22;7557;51.698;3.942;2022-12-18T12:16:48;1.70;99.90
9223;DHT22;7557;51.698;3.942;2022-12-18T12:19:28;1.60;99.90
9223;DHT22;7557;51.698;3.942;2022-12-18T12:22:03;1.60;99.90
9223;DHT22;7557;51.698;3.942;2022-12-18T12:24:43;1.60;99.90
9223;DHT22;7557;51.698;3.942;2022-12-18T12:27:19;1.50;99.90
9223;DHT22;7557;51.698;3.942;2022-12-18T12:29:57;1.60;99.90
9223;DHT22;7557;51.698;3.942;2022-12-18T12:32:40;1.50;99.90
9223;DHT22;7557;51.698;3.942;2022-12-18T12:35:22;1.50;99.90
9223;DHT22;7557;51.698;3.942;2022-12-18T12:37:58;1.60;99.90
9223;DHT22;7557;51.698;3.942;2022-12-18T12:40:31;1.60;99.90
9223;DHT22;7557;51.698;3.942;2022-12-18T12:43:03;1.60;99.90
9223;DHT22;7557;51.698;3.942;2022-12-18T12:45:44;1.60;99.90
9223;DHT22;7557;51.698;3.942;2022-12-18T12:48:21;1.60;99.90
9223;DHT22;7557;51.698;3.942;2022-12-18T12:50:53;1.70;99.90
9223;DHT22;7557;51.698;3.942;2022-12-18T12:53:26;1.60;99.90
9223;DHT22;7557;51.698;3.942;2022-12-18T12:55:54;1.60;99.90
9223;DHT22;7557;51.698;3.942;2022-12-18T12:58:29;1.60;99.90
9223;DHT22;7557;51.698;3.942;2022-12-18T13:01:08;1.60;99.90
9223;DHT22;7557;51.698;3.942;2022-12-18T13:03:50;1.60;99.90
9223;DHT22;7557;51.698;3.942;2022-12-18T13:06:29;1.60;99.90
9223;DHT22;7557;51.698;3.942;2022-12-18T13:08:59;1.70;99.90
9223;DHT22;7557;51.698;3.942;2022-12-18T13:11:32;1.50;99.90
9223;DHT22;7557;51.698;3.942;2022-12-18T13:14:24;1.60;99.90
9223;DHT22;7557;51.698;3.942;2022-12-18T13:16:52;1.60;99.90
9223;DHT22;7557;51.698;3.942;2022-12-18T13:19:41;1.60;99.90
9223;DHT22;7557;51.698;3.942;2022-12-18T13:22:21;1.50;99.90
9223;DHT22;7557;51.698;3.942;2022-12-18T13:24:49;1.50;99.90
9223;DHT22;7557;51.698;3.942;2022-12-18T13:30:45;1.70;99.90
9223;DHT22;7557;51.698;3.942;2022-12-18T13:33:39;1.60;99.90
9223;DHT22;7557;51.698;3.942;2022-12-18T13:36:14;1.70;99.90
9223;DHT22;7557;51.698;3.942;2022-12-18T13:38:43;1.70;99.90
9223;DHT22;7557;51.698;3.942;2022-12-18T13:41:25;1.70;99.90
9223;DHT22;7557;51.698;3.942;2022-12-18T13:43:54;1.70;99.90
9223;DHT22;7557;51.698;3.942;2022-12-18T13:46:27;1.60;99.90
9223;DHT22;7557;51.698;3.942;2022-12-18T13:49:02;1.70;99.90
9223;DHT22;7557;51.698;3.942;2022-12-18T13:51:33;1.70;99.90
9223;DHT22;7557;51.698;3.942;2022-12-18T13:54:17;1.70;99.90
9223;DHT22;7557;51.698;3.942;2022-12-18T13:56:46;1.60;99.90
9223;DHT22;7557;51.698;3.942;2022-12-18T13:59:18;1.60;99.90
9223;DHT22;7557;51.698;3.942;2022-12-18T14:01:48;1.60;99.90
9223;DHT22;7557;51.698;3.942;2022-12-18T14:04:21;1.60;99.90
9223;DHT22;7557;51.698;3.942;2022-12-18T14:06:54;1.50;99.90
9223;DHT22;7557;51.698;3.942;2022-12-18T14:09:26;1.50;99.90
9223;DHT22;7557;51.698;3.942;2022-12-18T14:11:54;1.50;99.90
9223;DHT22;7557;51.698;3.942;2022-12-18T14:14:45;1.40;99.90
9223;DHT22;7557;51.698;3.942;2022-12-18T14:17:15;1.40;99.90
9223;DHT22;7557;51.698;3.942;2022-12-18T14:19:44;1.40;99.90
9223;DHT22;7557;51.698;3.942;2022-12-18T14:22:17;1.50;99.90
9223;DHT22;7557;51.698;3.942;2022-12-18T14:24:46;1.40;99.90
9223;DHT22;7557;51.698;3.942;2022-12-18T14:27:22;1.40;99.90
9223;DHT22;7557;51.698;3.942;2022-12-18T14:29:51;1.40;99.90
9223;DHT22;7557;51.698;3.942;2022-12-18T14:32:19;1.40;99.90
9223;DHT22;7557;51.698;3.942;2022-12-18T14:34:49;1.40;99.90
9223;DHT22;7557;51.698;3.942;2022-12-18T14:37:21;1.40;99.90
9223;DHT22;7557;51.698;3.942;2022-12-18T14:39:54;1.50;99.90
9223;DHT22;7557;51.698;3.942;2022-12-18T14:42:22;1.50;99.90
9223;DHT22;7557;51.698;3.942;2022-12-18T14:47:54;1.50;99.90
9223;DHT22;7557;51.698;3.942;2022-12-18T14:50:22;1.50;99.90
9223;DHT22;7557;51.698;3.942;2022-12-18T14:52:51;1.50;99.90
9223;DHT22;7557;51.698;3.942;2022-12-18T14:55:20;1.50;99.90
9223;DHT22;7557;51.698;3.942;2022-12-18T14:57:51;1.60;99.90
9223;DHT22;7557;51.698;3.942;2022-12-18T15:00:20;1.60;99.90
9223;DHT22;7557;51.698;3.942;2022-12-18T15:02:52;1.60;99.90
9223;DHT22;7557;51.698;3.942;2022-12-18T15:05:24;1.60;99.90
9223;DHT22;7557;51.698;3.942;2022-12-18T15:07:54;1.60;99.90
9223;DHT22;7557;51.698;3.942;2022-12-18T15:10:23;1.70;99.90
9223;DHT22;7557;51.698;3.942;2022-12-18T15:13:15;1.70;99.90
9223;DHT22;7557;51.698;3.942;2022-12-18T15:15:48;1.70;99.90
9223;DHT22;7557;51.698;3.942;2022-12-18T15:18:17;1.70;99.90
9223;DHT22;7557;51.698;3.942;2022-12-18T15:20:47;1.70;99.90
9223;DHT22;7557;51.698;3.942;2022-12-18T15:23:20;1.70;99.90
9223;DHT22;7557;51.698;3.942;2022-12-18T15:25:54;1.70;99.90
9223;DHT22;7557;51.698;3.942;2022-12-18T15:28:24;1.70;99.90
9223;DHT22;7557;51.698;3.942;2022-12-18T15:31:06;1.70;99.90
9223;DHT22;7557;51.698;3.942;2022-12-18T15:33:35;1.80;99.90
9223;DHT22;7557;51.698;3.942;2022-12-18T15:36:04;1.80;99.90
9223;DHT22;7557;51.698;3.942;2022-12-18T15:38:34;1.90;99.90
9223;DHT22;7557;51.698;3.942;2022-12-18T15:41:01;1.90;99.90
9223;DHT22;7557;51.698;3.942;2022-12-18T15:43:29;1.90;99.90
9223;DHT22;7557;51.698;3.942;2022-12-18T15:46:07;1.90;99.90
9223;DHT22;7557;51.698;3.942;2022-12-18T15:48:39;1.90;99.90
9223;DHT22;7557;51.698;3.942;2022-12-18T15:51:13;1.90;99.90
9223;DHT22;7557;51.698;3.942;2022-12-18T15:53:44;1.90;99.90
9223;DHT22;7557;51.698;3.942;2022-12-18T15:56:12;2.00;99.90
9223;DHT22;7557;51.698;3.942;2022-12-18T15:58:57;2.00;99.90
9223;DHT22;7557;51.698;3.942;2022-12-18T16:01:26;2.00;99.90
9223;DHT22;7557;51.698;3.942;2022-12-18T16:03:54;2.00;99.90
9223;DHT22;7557;51.698;3.942;2022-12-18T16:06:23;2.10;99.90
9223;DHT22;7557;51.698;3.942;2022-12-18T16:08:52;2.00;99.90
9223;DHT22;7557;51.698;3.942;2022-12-18T16:11:22;2.00;99.90
9223;DHT22;7557;51.698;3.942;2022-12-18T16:14:05;2.00;99.90
9223;DHT22;7557;51.698;3.942;2022-12-18T16:16:33;2.00;99.90
9223;DHT22;7557;51.698;3.942;2022-12-18T16:19:00;2.10;99.90
9223;DHT22;7557;51.698;3.942;2022-12-18T16:21:28;2.00;99.90
9223;DHT22;7557;51.698;3.942;2022-12-18T16:23:57;2.00;99.90
9223;DHT22;7557;51.698;3.942;2022-12-18T16:26:24;2.00;99.90
9223;DHT22;7557;51.698;3.942;2022-12-18T16:28:52;2.10;99.90
9223;DHT22;7557;51.698;3.942;2022-12-18T16:31:20;2.10;99.90
9223;DHT22;7557;51.698;3.942;2022-12-18T16:36:33;2.10;99.90
9223;DHT22;7557;51.698;3.942;2022-12-18T16:39:05;2.10;99.90
9223;DHT22;7557;51.698;3.942;2022-12-18T16:41:33;2.10;99.90
9223;DHT22;7557;51.698;3.942;2022-12-18T16:44:01;2.10;99.90
9223;DHT22;7557;51.698;3.942;2022-12-18T16:46:29;2.20;99.90
9223;DHT22;7557;51.698;3.942;2022-12-18T16:48:58;2.20;99.90
9223;DHT22;7557;51.698;3.942;2022-12-18T16:51:26;2.10;99.90